createdAt,value
2023-02-07T00:00:04.305Z,58.17
2023-02-07T00:01:05.334Z,56.88
2023-02-07T00:02:04.356Z,57.85
2023-02-07T00:03:04.297Z,58.01
2023-02-07T00:04:04.290Z,58.33
2023-02-07T00:05:05.008Z,58.17
2023-02-07T00:06:04.314Z,58.17
2023-02-07T00:07:04.261Z,58.33
2023-02-07T00:08:04.252Z,58.49
2023-02-07T00:09:04.238Z,58.65
2023-02-07T00:10:04.241Z,58.33
2023-02-07T00:11:04.265Z,57.52
2023-02-07T00:12:04.220Z,57.69
2023-02-07T00:13:06.318Z,57.52
2023-02-07T00:14:05.230Z,58.17
2023-02-07T00:15:04.195Z,58.49
2023-02-07T00:16:05.243Z,57.36
2023-02-07T00:17:04.189Z,58.33
2023-02-07T00:18:04.177Z,57.52
2023-02-07T00:19:04.178Z,57.04
2023-02-07T00:20:04.163Z,57.04
2023-02-07T00:21:04.201Z,56.56
2023-02-07T00:22:04.143Z,57.04
2023-02-07T00:23:04.137Z,57.04
2023-02-07T00:24:04.160Z,56.88
2023-02-07T00:25:04.117Z,57.20
2023-02-07T00:26:04.117Z,57.20
2023-02-07T00:27:04.143Z,57.04
2023-02-07T00:28:04.163Z,57.36
2023-02-07T00:29:04.093Z,57.04
2023-02-07T00:30:04.090Z,56.88
2023-02-07T00:31:04.166Z,57.04
2023-02-07T00:32:04.104Z,57.20
2023-02-07T00:33:04.064Z,56.72
2023-02-07T00:34:04.089Z,57.04
2023-02-07T00:35:04.053Z,55.75
2023-02-07T00:36:04.044Z,56.72
2023-02-07T00:37:04.091Z,56.56
2023-02-07T00:38:04.029Z,39.96
2023-02-07T00:39:04.022Z,43.67
2023-02-07T00:40:04.009Z,43.02
2023-02-07T00:41:04.034Z,41.57
2023-02-07T00:42:04.022Z,45.28
2023-02-07T00:43:03.987Z,41.57
2023-02-07T00:44:03.989Z,48.18
2023-02-07T00:45:03.989Z,44.79
2023-02-07T00:46:03.991Z,48.02
2023-02-07T00:47:03.987Z,43.83
2023-02-07T00:48:03.953Z,46.89
2023-02-07T00:49:03.971Z,43.51
2023-02-07T00:50:03.934Z,44.31
2023-02-07T00:51:03.919Z,42.06
2023-02-07T00:52:03.938Z,42.86
2023-02-07T00:53:03.912Z,41.73
2023-02-07T00:54:03.900Z,43.02
2023-02-07T00:55:03.898Z,43.02
2023-02-07T00:56:03.886Z,42.54
2023-02-07T00:57:03.906Z,44.15
2023-02-07T00:58:03.866Z,42.86
2023-02-07T00:59:03.858Z,43.34
2023-02-07T01:00:04.859Z,44.63
2023-02-07T01:01:03.887Z,51.40
2023-02-07T01:02:03.870Z,56.24
2023-02-07T01:03:03.843Z,59.30
2023-02-07T01:04:03.821Z,57.69
2023-02-07T01:05:04.009Z,58.01
2023-02-07T01:06:03.822Z,57.52
2023-02-07T01:07:03.847Z,58.65
2023-02-07T01:08:03.815Z,58.81
2023-02-07T01:09:03.797Z,58.81
2023-02-07T01:10:03.819Z,59.94
2023-02-07T01:11:03.776Z,59.62
2023-02-07T01:12:03.805Z,59.62
2023-02-07T01:13:03.771Z,60.42
2023-02-07T01:14:03.773Z,59.14
2023-02-07T01:15:03.756Z,58.97
2023-02-07T01:16:03.781Z,59.30
2023-02-07T01:17:03.785Z,59.14
2023-02-07T01:18:03.739Z,59.78
2023-02-07T01:19:03.757Z,60.10
2023-02-07T01:20:03.727Z,59.62
2023-02-07T01:21:03.701Z,59.78
2023-02-07T01:22:04.730Z,59.46
2023-02-07T01:23:03.695Z,59.94
2023-02-07T01:24:03.700Z,59.62
2023-02-07T01:25:03.683Z,59.94
2023-02-07T01:26:03.671Z,59.46
2023-02-07T01:27:03.690Z,59.78
2023-02-07T01:28:03.724Z,59.78
2023-02-07T01:29:04.665Z,59.78
2023-02-07T01:30:03.696Z,59.62
2023-02-07T01:31:03.710Z,59.14
2023-02-07T01:32:03.692Z,58.97
2023-02-07T01:33:03.622Z,60.26
2023-02-07T01:34:05.515Z,60.26
2023-02-07T01:35:04.605Z,59.46
2023-02-07T01:36:03.599Z,59.94
2023-02-07T01:37:03.618Z,60.10
2023-02-07T01:38:03.608Z,59.94
2023-02-07T01:39:03.569Z,59.78
2023-02-07T01:40:03.570Z,59.94
2023-02-07T01:41:03.577Z,59.30
2023-02-07T01:42:03.591Z,58.97
2023-02-07T01:43:03.565Z,59.14
2023-02-07T01:44:03.534Z,59.14
2023-02-07T01:45:03.527Z,59.62
2023-02-07T01:46:03.652Z,59.94
2023-02-07T01:47:03.508Z,59.62
2023-02-07T01:48:03.518Z,58.97
2023-02-07T01:49:03.492Z,59.14
2023-02-07T01:50:03.508Z,59.30
2023-02-07T01:51:03.477Z,59.94
2023-02-07T01:52:03.468Z,60.10
2023-02-07T01:53:03.493Z,58.65
2023-02-07T01:54:03.452Z,58.65
2023-02-07T01:55:03.459Z,59.14
2023-02-07T01:56:03.439Z,59.30
2023-02-07T01:57:03.784Z,59.14
2023-02-07T01:58:03.474Z,59.14
2023-02-07T01:59:03.418Z,58.49
2023-02-07T02:00:03.429Z,58.65
2023-02-07T02:01:03.402Z,58.17
2023-02-07T02:02:03.406Z,58.17
2023-02-07T02:03:03.435Z,57.36
2023-02-07T02:04:03.387Z,58.17
2023-02-07T02:05:03.378Z,57.85
2023-02-07T02:06:03.379Z,58.33
2023-02-07T02:07:03.364Z,57.85
2023-02-07T02:08:03.378Z,57.85
2023-02-07T02:09:03.345Z,58.97
2023-02-07T02:10:03.360Z,58.01
2023-02-07T02:11:03.342Z,58.17
2023-02-07T02:12:03.332Z,57.36
2023-02-07T02:13:03.350Z,57.36
2023-02-07T02:14:03.375Z,57.20
2023-02-07T02:15:03.340Z,57.85
2023-02-07T02:16:03.369Z,57.36
2023-02-07T02:17:03.294Z,57.36
2023-02-07T02:18:03.329Z,57.85
2023-02-07T02:19:03.280Z,57.52
2023-02-07T02:20:03.269Z,58.33
2023-02-07T02:21:03.275Z,58.17
2023-02-07T02:22:03.269Z,57.85
2023-02-07T02:23:03.278Z,58.01
2023-02-07T02:24:03.249Z,58.17
2023-02-07T02:25:03.255Z,58.17
2023-02-07T02:26:03.235Z,58.65
2023-02-07T02:27:03.223Z,51.40
2023-02-07T02:28:03.261Z,42.06
2023-02-07T02:29:03.218Z,39.80
2023-02-07T02:30:03.199Z,43.83
2023-02-07T02:31:03.243Z,44.15
2023-02-07T02:32:03.191Z,42.70
2023-02-07T02:33:03.217Z,40.93
2023-02-07T02:34:03.172Z,41.57
2023-02-07T02:35:03.187Z,41.57
2023-02-07T02:36:03.157Z,43.34
2023-02-07T02:37:03.154Z,41.25
2023-02-07T02:38:03.154Z,40.61
2023-02-07T02:39:03.211Z,41.09
2023-02-07T02:40:04.141Z,42.38
2023-02-07T02:41:03.188Z,41.57
2023-02-07T02:42:03.122Z,45.92
2023-02-07T02:43:03.117Z,43.18
2023-02-07T02:44:03.130Z,43.02
2023-02-07T02:45:03.105Z,40.93
2023-02-07T02:46:03.096Z,43.18
2023-02-07T02:47:03.089Z,42.54
2023-02-07T02:48:03.107Z,43.67
2023-02-07T02:49:03.112Z,45.60
2023-02-07T02:50:03.068Z,42.22
2023-02-07T02:51:03.065Z,43.34
2023-02-07T02:52:03.049Z,43.99
2023-02-07T02:53:03.047Z,43.99
2023-02-07T02:54:03.074Z,41.41
2023-02-07T02:55:03.054Z,41.73
2023-02-07T02:56:03.031Z,50.27
2023-02-07T02:57:03.023Z,41.89
2023-02-07T02:58:03.008Z,41.57
2023-02-07T02:59:03.052Z,41.57
2023-02-07T03:00:02.992Z,41.57
2023-02-07T03:01:03.008Z,42.22
2023-02-07T03:02:02.990Z,41.25
2023-02-07T03:03:02.985Z,41.09
2023-02-07T03:04:02.991Z,48.98
2023-02-07T03:05:03.009Z,45.28
2023-02-07T03:06:02.951Z,43.99
2023-02-07T03:07:02.952Z,43.02
2023-02-07T03:08:02.944Z,41.57
2023-02-07T03:09:02.991Z,41.57
2023-02-07T03:10:02.968Z,43.83
2023-02-07T03:11:02.924Z,43.02
2023-02-07T03:12:02.913Z,43.02
2023-02-07T03:13:02.971Z,44.96
2023-02-07T03:14:02.950Z,43.02
2023-02-07T03:15:02.894Z,42.86
2023-02-07T03:16:02.911Z,55.75
2023-02-07T03:17:02.881Z,58.01
2023-02-07T03:18:02.897Z,58.17
2023-02-07T03:19:02.863Z,57.85
2023-02-07T03:20:02.879Z,58.49
2023-02-07T03:21:02.878Z,58.81
2023-02-07T03:22:02.841Z,59.30
2023-02-07T03:23:02.837Z,59.78
2023-02-07T03:24:02.892Z,59.14
2023-02-07T03:25:02.921Z,59.94
2023-02-07T03:26:02.817Z,59.62
2023-02-07T03:27:02.826Z,59.62
2023-02-07T03:28:02.914Z,59.62
2023-02-07T03:29:02.787Z,60.10
2023-02-07T03:30:02.810Z,59.62
2023-02-07T03:31:02.897Z,59.94
2023-02-07T03:32:02.775Z,59.94
2023-02-07T03:33:02.784Z,58.97
2023-02-07T03:34:02.754Z,60.26
2023-02-07T03:35:02.770Z,59.62
2023-02-07T03:36:02.747Z,60.26
2023-02-07T03:37:02.743Z,59.94
2023-02-07T03:38:02.793Z,59.78
2023-02-07T03:39:02.735Z,59.78
2023-02-07T03:40:02.748Z,59.46
2023-02-07T03:41:02.721Z,59.62
2023-02-07T03:42:02.696Z,59.14
2023-02-07T03:43:02.694Z,59.62
2023-02-07T03:44:02.738Z,59.30
2023-02-07T03:45:02.710Z,59.78
2023-02-07T03:46:02.674Z,59.62
2023-02-07T03:47:02.660Z,58.65
2023-02-07T03:48:02.661Z,59.14
2023-02-07T03:49:02.651Z,58.97
2023-02-07T03:50:02.670Z,58.97
2023-02-07T03:51:02.636Z,59.94
2023-02-07T03:52:02.628Z,59.14
2023-02-07T03:53:02.651Z,59.62
2023-02-07T03:54:02.609Z,59.62
2023-02-07T03:55:02.633Z,59.46
2023-02-07T03:56:02.603Z,59.46
2023-02-07T03:57:02.595Z,58.81
2023-02-07T03:58:02.590Z,58.65
2023-02-07T03:59:02.574Z,58.65
2023-02-07T04:00:02.598Z,58.97
2023-02-07T04:01:02.589Z,59.14
2023-02-07T04:02:02.591Z,58.81
2023-02-07T04:03:02.557Z,58.49
2023-02-07T04:04:02.540Z,58.97
2023-02-07T04:05:02.564Z,59.30
2023-02-07T04:06:02.525Z,59.30
2023-02-07T04:07:02.520Z,59.62
2023-02-07T04:08:02.541Z,58.97
2023-02-07T04:09:02.510Z,58.65
2023-02-07T04:10:02.545Z,59.14
2023-02-07T04:11:02.522Z,59.14
2023-02-07T04:12:02.500Z,59.14
2023-02-07T04:13:02.489Z,58.97
2023-02-07T04:14:02.467Z,58.65
2023-02-07T04:15:02.963Z,59.62
2023-02-07T04:16:02.478Z,59.14
2023-02-07T04:17:02.474Z,59.94
2023-02-07T04:18:02.450Z,59.62
2023-02-07T04:19:02.440Z,59.62
2023-02-07T04:20:02.441Z,58.97
2023-02-07T04:21:02.455Z,59.46
2023-02-07T04:22:02.427Z,59.14
2023-02-07T04:23:02.412Z,59.30
2023-02-07T04:24:02.404Z,59.14
2023-02-07T04:25:02.426Z,59.30
2023-02-07T04:26:02.406Z,59.78
2023-02-07T04:27:02.392Z,60.10
2023-02-07T04:28:02.392Z,59.62
2023-02-07T04:29:02.374Z,59.62
2023-02-07T04:30:02.360Z,59.46
2023-02-07T04:31:02.377Z,59.62
2023-02-07T04:32:02.459Z,60.26
2023-02-07T04:33:02.341Z,60.26
2023-02-07T04:34:02.384Z,60.26
2023-02-07T04:35:02.323Z,59.14
2023-02-07T04:36:02.346Z,59.14
2023-02-07T04:37:02.307Z,60.26
2023-02-07T04:38:02.302Z,59.46
2023-02-07T04:39:02.363Z,59.78
2023-02-07T04:40:02.288Z,58.49
2023-02-07T04:41:02.307Z,59.62
2023-02-07T04:42:02.281Z,57.20
2023-02-07T04:43:02.270Z,57.85
2023-02-07T04:44:02.267Z,58.33
2023-02-07T04:45:02.263Z,58.17
2023-02-07T04:46:02.337Z,57.85
2023-02-07T04:47:02.248Z,58.01
2023-02-07T04:48:02.230Z,58.33
2023-02-07T04:49:02.227Z,58.33
2023-02-07T04:50:02.223Z,57.69
2023-02-07T04:51:02.240Z,57.69
2023-02-07T04:52:02.236Z,59.14
2023-02-07T04:53:02.193Z,57.69
2023-02-07T04:54:02.203Z,58.49
2023-02-07T04:55:02.189Z,58.33
2023-02-07T04:56:02.203Z,58.65
2023-02-07T04:57:02.160Z,59.78
2023-02-07T04:58:02.160Z,59.62
2023-02-07T04:59:02.140Z,59.30
2023-02-07T05:00:02.154Z,59.62
2023-02-07T05:01:02.174Z,59.14
2023-02-07T05:02:02.137Z,58.97
2023-02-07T05:03:02.126Z,58.81
2023-02-07T05:04:34.976Z,59.46
2023-02-07T05:05:02.117Z,59.62
2023-02-07T05:06:02.127Z,59.62
2023-02-07T05:07:02.087Z,59.46
2023-02-07T05:08:02.078Z,58.81
2023-02-07T05:09:02.060Z,58.65
2023-02-07T05:10:03.071Z,59.14
2023-02-07T05:11:02.071Z,59.14
2023-02-07T05:12:02.104Z,58.49
2023-02-07T05:13:02.054Z,59.30
2023-02-07T05:14:02.044Z,59.62
2023-02-07T05:15:02.040Z,58.65
2023-02-07T05:16:02.021Z,60.26
2023-02-07T05:17:02.047Z,59.46
2023-02-07T05:18:02.010Z,59.30
2023-02-07T05:19:01.996Z,59.78
2023-02-07T05:20:01.993Z,60.10
2023-02-07T05:21:02.001Z,60.10
2023-02-07T05:22:02.009Z,59.46
2023-02-07T05:23:01.983Z,59.94
2023-02-07T05:24:01.953Z,59.14
2023-02-07T05:25:02.961Z,59.14
2023-02-07T05:26:01.962Z,60.91
2023-02-07T05:27:01.977Z,60.26
2023-02-07T05:28:01.984Z,58.81
2023-02-07T05:29:01.928Z,59.30
2023-02-07T05:30:01.928Z,59.62
2023-02-07T05:31:01.996Z,59.94
2023-02-07T05:32:01.936Z,60.26
2023-02-07T05:33:01.898Z,59.30
2023-02-07T05:34:01.899Z,59.14
2023-02-07T05:35:02.452Z,59.14
2023-02-07T05:36:01.885Z,60.10
2023-02-07T05:37:01.900Z,58.65
2023-02-07T05:38:01.894Z,58.97
2023-02-07T05:39:02.759Z,60.59
2023-02-07T05:40:01.845Z,60.42
2023-02-07T05:41:01.875Z,59.14
2023-02-07T05:42:01.897Z,59.30
2023-02-07T05:43:01.838Z,59.46
2023-02-07T05:44:01.824Z,59.46
2023-02-07T05:45:02.854Z,61.23
2023-02-07T05:46:01.873Z,58.49
2023-02-07T05:47:01.842Z,58.65
2023-02-07T05:48:01.801Z,58.81
2023-02-07T05:49:01.783Z,58.81
2023-02-07T05:50:01.790Z,59.78
2023-02-07T05:51:01.776Z,59.30
2023-02-07T05:52:01.761Z,60.59
2023-02-07T05:53:01.782Z,59.62
2023-02-07T05:54:01.750Z,59.14
2023-02-07T05:55:01.736Z,59.30
2023-02-07T05:56:01.727Z,58.97
2023-02-07T05:57:01.721Z,59.30
2023-02-07T05:58:01.750Z,59.62
2023-02-07T05:59:01.704Z,58.17
2023-02-07T06:00:01.701Z,58.97
2023-02-07T06:01:01.690Z,59.62
2023-02-07T06:02:01.683Z,62.36
2023-02-07T06:03:01.703Z,59.94
2023-02-07T06:04:01.670Z,58.81
2023-02-07T06:05:01.666Z,59.78
2023-02-07T06:06:01.658Z,58.81
2023-02-07T06:07:01.664Z,60.91
2023-02-07T06:08:01.689Z,61.23
2023-02-07T06:09:01.640Z,59.14
2023-02-07T06:10:01.642Z,59.14
2023-02-07T06:11:01.625Z,58.65
2023-02-07T06:12:03.131Z,58.97
2023-02-07T06:13:01.639Z,58.65
2023-02-07T06:14:01.605Z,58.65
2023-02-07T06:15:01.592Z,58.65
2023-02-07T06:16:01.600Z,59.46
2023-02-07T06:17:01.588Z,59.46
2023-02-07T06:18:01.616Z,59.62
2023-02-07T06:19:01.572Z,60.26
2023-02-07T06:20:01.568Z,58.97
2023-02-07T06:21:01.555Z,59.62
2023-02-07T06:22:01.550Z,58.65
2023-02-07T06:23:01.581Z,59.46
2023-02-07T06:24:01.538Z,58.81
2023-02-07T06:25:01.556Z,59.46
2023-02-07T06:26:01.549Z,59.30
2023-02-07T06:27:01.532Z,58.65
2023-02-07T06:28:01.649Z,58.81
2023-02-07T06:29:01.497Z,58.97
2023-02-07T06:30:01.503Z,58.65
2023-02-07T06:31:01.613Z,59.14
2023-02-07T06:32:01.477Z,58.81
2023-02-07T06:33:01.497Z,58.17
2023-02-07T06:34:01.469Z,59.46
2023-02-07T06:35:01.483Z,59.30
2023-02-07T06:36:01.439Z,58.49
2023-02-07T06:37:01.457Z,58.33
2023-02-07T06:38:01.468Z,58.65
2023-02-07T06:39:01.431Z,58.97
2023-02-07T06:40:01.445Z,58.17
2023-02-07T06:41:01.407Z,59.30
2023-02-07T06:42:01.406Z,58.81
2023-02-07T06:43:01.429Z,59.14
2023-02-07T06:44:01.386Z,58.65
2023-02-07T06:45:01.518Z,58.49
2023-02-07T06:46:01.397Z,61.23
2023-02-07T06:47:01.375Z,58.97
2023-02-07T06:48:02.394Z,58.65
2023-02-07T06:49:01.398Z,59.14
2023-02-07T06:50:01.360Z,58.17
2023-02-07T06:51:01.343Z,58.97
2023-02-07T06:52:01.331Z,58.97
2023-02-07T06:53:01.378Z,60.42
2023-02-07T06:54:01.323Z,59.30
2023-02-07T06:55:01.319Z,58.97
2023-02-07T06:56:01.324Z,58.49
2023-02-07T06:57:01.334Z,58.33
2023-02-07T06:58:01.321Z,59.62
2023-02-07T06:59:01.317Z,60.75
2023-02-07T07:00:01.281Z,58.65
2023-02-07T07:01:01.269Z,58.65
2023-02-07T07:02:01.299Z,58.33
2023-02-07T07:03:01.327Z,58.81
2023-02-07T07:04:01.312Z,58.65
2023-02-07T07:05:01.245Z,59.14
2023-02-07T07:06:01.241Z,58.65
2023-02-07T07:07:01.239Z,58.65
2023-02-07T07:08:01.229Z,59.30
2023-02-07T07:09:01.241Z,58.81
2023-02-07T07:10:01.285Z,59.46
2023-02-07T07:11:02.246Z,58.65
2023-02-07T07:12:01.201Z,58.97
2023-02-07T07:13:01.197Z,58.81
2023-02-07T07:14:01.201Z,58.33
2023-02-07T07:15:01.178Z,58.33
2023-02-07T07:16:01.185Z,58.65
2023-02-07T07:17:01.170Z,57.69
2023-02-07T07:18:01.144Z,58.17
2023-02-07T07:19:01.164Z,58.33
2023-02-07T07:20:01.126Z,58.49
2023-02-07T07:21:01.120Z,57.36
2023-02-07T07:22:01.123Z,61.39
2023-02-07T07:23:01.102Z,58.65
2023-02-07T07:24:01.124Z,58.33
2023-02-07T07:25:01.111Z,58.65
2023-02-07T07:26:01.093Z,57.36
2023-02-07T07:27:01.081Z,57.85
2023-02-07T07:28:01.095Z,58.33
2023-02-07T07:29:01.089Z,57.69
2023-02-07T07:30:01.100Z,56.88
2023-02-07T07:31:01.117Z,57.04
2023-02-07T07:32:02.063Z,59.14
2023-02-07T07:33:01.031Z,58.01
2023-02-07T07:34:01.053Z,58.33
2023-02-07T07:35:01.057Z,57.69
2023-02-07T07:36:01.007Z,58.81
2023-02-07T07:37:01.002Z,58.33
2023-02-07T07:38:00.998Z,58.65
2023-02-07T07:39:01.016Z,57.52
2023-02-07T07:40:00.986Z,57.36
2023-02-07T07:41:00.967Z,58.17
2023-02-07T07:42:00.993Z,56.56
2023-02-07T07:43:00.952Z,58.01
2023-02-07T07:44:00.975Z,57.69
2023-02-07T07:45:00.937Z,57.85
2023-02-07T07:46:00.929Z,57.69
2023-02-07T07:47:00.921Z,58.01
2023-02-07T07:48:00.973Z,58.17
2023-02-07T07:49:00.941Z,58.33
2023-02-07T07:50:00.910Z,58.65
2023-02-07T07:51:00.935Z,59.46
2023-02-07T07:52:00.892Z,58.01
2023-02-07T07:53:00.876Z,59.30
2023-02-07T07:54:00.894Z,58.33
2023-02-07T07:55:00.865Z,58.97
2023-02-07T07:56:00.878Z,57.85
2023-02-07T07:57:00.848Z,58.97
2023-02-07T07:58:00.843Z,58.65
2023-02-07T07:59:06.118Z,60.26
2023-02-07T08:00:02.849Z,58.17
2023-02-07T08:01:00.913Z,57.52
2023-02-07T08:02:00.806Z,57.04
2023-02-07T08:03:00.804Z,57.85
2023-02-07T08:04:00.822Z,57.85
2023-02-07T08:05:00.813Z,57.85
2023-02-07T08:06:00.782Z,57.69
2023-02-07T08:07:00.780Z,55.43
2023-02-07T08:08:00.777Z,56.24
2023-02-07T08:09:00.771Z,56.56
2023-02-07T08:10:00.775Z,57.20
2023-02-07T08:11:00.747Z,56.24
2023-02-07T08:12:00.736Z,57.85
2023-02-07T08:13:00.732Z,56.07
2023-02-07T08:14:00.724Z,57.36
2023-02-07T08:15:00.925Z,56.72
2023-02-07T08:16:00.752Z,58.97
2023-02-07T08:17:00.700Z,57.69
2023-02-07T08:18:00.714Z,57.36
2023-02-07T08:19:00.709Z,57.04
2023-02-07T08:20:00.732Z,55.91
2023-02-07T08:21:00.670Z,56.24
2023-02-07T08:22:00.681Z,58.49
2023-02-07T08:23:00.660Z,55.91
2023-02-07T08:24:00.653Z,56.07
2023-02-07T08:25:00.684Z,57.36
2023-02-07T08:26:00.654Z,56.72
2023-02-07T08:27:00.634Z,55.91
2023-02-07T08:28:02.156Z,55.75
2023-02-07T08:29:00.616Z,57.36
2023-02-07T08:30:00.701Z,56.07
2023-02-07T08:31:00.643Z,54.95
2023-02-07T08:32:00.666Z,57.36
2023-02-07T08:33:00.605Z,55.75
2023-02-07T08:34:00.588Z,54.79
2023-02-07T08:35:00.604Z,57.20
2023-02-07T08:36:00.626Z,56.88
2023-02-07T08:37:00.567Z,56.40
2023-02-07T08:38:00.557Z,56.07
2023-02-07T08:39:00.564Z,55.43
2023-02-07T08:40:00.561Z,55.59
2023-02-07T08:41:00.563Z,55.91
2023-02-07T08:42:00.524Z,55.75
2023-02-07T08:43:00.521Z,57.36
2023-02-07T08:44:00.517Z,56.40
2023-02-07T08:45:00.532Z,57.04
2023-02-07T08:46:00.636Z,55.75
2023-02-07T08:47:00.486Z,55.91
2023-02-07T08:48:00.510Z,57.20
2023-02-07T08:49:00.488Z,57.69
2023-02-07T08:50:00.501Z,55.75
2023-02-07T08:51:00.461Z,55.75
2023-02-07T08:52:00.452Z,58.01
2023-02-07T08:53:00.446Z,57.20
2023-02-07T08:54:00.433Z,56.88
2023-02-07T08:55:00.466Z,55.91
2023-02-07T08:56:00.415Z,55.91
2023-02-07T08:57:00.409Z,58.65
2023-02-07T08:58:00.404Z,57.85
2023-02-07T08:59:00.397Z,57.20
2023-02-07T09:00:00.414Z,56.07
2023-02-07T09:01:00.475Z,57.69
2023-02-07T09:02:00.458Z,55.43
2023-02-07T09:03:00.364Z,57.36
2023-02-07T09:04:00.364Z,57.36
2023-02-07T09:05:00.378Z,56.88
2023-02-07T09:06:00.340Z,57.69
2023-02-07T09:07:00.335Z,58.49
2023-02-07T09:08:00.336Z,57.20
2023-02-07T09:09:00.338Z,57.69
2023-02-07T09:10:00.338Z,57.52
2023-02-07T09:11:00.355Z,56.72
2023-02-07T09:12:00.304Z,58.97
2023-02-07T09:13:00.304Z,57.69
2023-02-07T09:14:00.282Z,57.36
2023-02-07T09:15:00.308Z,56.88
2023-02-07T09:16:00.272Z,56.24
2023-02-07T09:17:00.300Z,58.49
2023-02-07T09:18:00.262Z,55.91
2023-02-07T09:19:00.245Z,58.01
2023-02-07T09:20:00.266Z,56.72
2023-02-07T09:21:00.233Z,55.43
2023-02-07T09:22:00.229Z,56.07
2023-02-07T09:23:00.221Z,55.91
2023-02-07T09:24:00.215Z,56.72
2023-02-07T09:25:00.256Z,57.52
2023-02-07T09:26:00.216Z,57.85
2023-02-07T09:27:00.212Z,56.72
2023-02-07T09:28:00.216Z,57.20
2023-02-07T09:29:00.172Z,56.72
2023-02-07T09:30:00.199Z,56.72
2023-02-07T09:31:00.307Z,58.01
2023-02-07T09:32:00.195Z,56.24
2023-02-07T09:33:00.148Z,56.56
2023-02-07T09:34:00.165Z,55.75
2023-02-07T09:35:00.182Z,56.07
2023-02-07T09:36:00.149Z,55.91
2023-02-07T09:37:00.118Z,55.75
2023-02-07T09:38:00.149Z,56.07
2023-02-07T09:39:00.119Z,57.69
2023-02-07T09:40:00.142Z,56.72
2023-02-07T09:41:00.100Z,56.07
2023-02-07T09:42:00.080Z,58.65
2023-02-07T09:43:01.288Z,57.69
2023-02-07T09:44:00.244Z,56.24
2023-02-07T09:45:00.240Z,57.04
2023-02-07T09:46:00.093Z,56.24
2023-02-07T09:47:00.060Z,54.79
2023-02-07T09:48:00.051Z,56.56
2023-02-07T09:49:00.027Z,57.04
2023-02-07T09:50:00.019Z,57.36
2023-02-07T09:51:00.047Z,56.07
2023-02-07T09:52:00.007Z,56.56
2023-02-07T09:53:00.001Z,56.56
2023-02-07T09:53:59.995Z,57.04
2023-02-07T09:54:59.994Z,56.24
2023-02-07T09:56:00.006Z,57.85
2023-02-07T09:56:59.967Z,55.75
2023-02-07T09:57:59.973Z,56.88
2023-02-07T09:58:59.950Z,58.01
2023-02-07T09:59:59.952Z,56.40
2023-02-07T10:00:59.995Z,55.43
2023-02-07T10:01:59.927Z,56.07
2023-02-07T10:02:59.934Z,55.75
2023-02-07T10:03:59.915Z,56.72
2023-02-07T10:04:59.900Z,56.56
2023-02-07T10:06:09.196Z,56.72
2023-02-07T10:07:00.894Z,57.04
2023-02-07T10:07:59.883Z,56.07
2023-02-07T10:08:59.873Z,55.75
2023-02-07T10:09:59.862Z,56.88
2023-02-07T10:10:59.880Z,56.24
2023-02-07T10:11:59.889Z,55.27
2023-02-07T10:12:59.825Z,55.75
2023-02-07T10:14:00.838Z,55.59
2023-02-07T10:14:59.833Z,56.56
2023-02-07T10:15:59.870Z,56.72
2023-02-07T10:16:59.809Z,56.72
2023-02-07T10:17:59.811Z,57.20
2023-02-07T10:18:59.796Z,58.17
2023-02-07T10:19:59.787Z,54.62
2023-02-07T10:20:59.837Z,55.11
2023-02-07T10:21:59.770Z,55.43
2023-02-07T10:22:59.768Z,57.52
2023-02-07T10:23:59.757Z,56.24
2023-02-07T10:24:59.750Z,55.43
2023-02-07T10:25:59.780Z,56.56
2023-02-07T10:26:59.732Z,56.07
2023-02-07T10:27:59.759Z,56.72
2023-02-07T10:28:59.722Z,56.56
2023-02-07T10:29:59.715Z,50.92
2023-02-07T10:30:59.847Z,50.11
2023-02-07T10:31:59.701Z,49.79
2023-02-07T10:32:59.685Z,53.98
2023-02-07T10:33:59.679Z,48.82
2023-02-07T10:34:59.674Z,49.31
2023-02-07T10:35:59.664Z,53.50
2023-02-07T10:36:59.679Z,55.27
2023-02-07T10:37:59.648Z,44.15
2023-02-07T10:39:08.417Z,50.43
2023-02-07T10:40:01.639Z,46.25
2023-02-07T10:40:59.626Z,47.21
2023-02-07T10:41:59.663Z,49.47
2023-02-07T10:42:59.694Z,46.08
2023-02-07T10:43:59.606Z,51.72
2023-02-07T10:44:59.613Z,50.76
2023-02-07T10:46:04.493Z,44.63
2023-02-07T10:47:01.658Z,51.88
2023-02-07T10:47:59.588Z,45.28
2023-02-07T10:48:59.570Z,45.76
2023-02-07T10:49:59.567Z,56.07
2023-02-07T10:50:59.555Z,43.99
2023-02-07T10:51:59.582Z,46.89
2023-02-07T10:52:59.579Z,43.83
2023-02-07T10:53:59.677Z,53.82
2023-02-07T10:54:59.527Z,48.82
2023-02-07T10:55:59.518Z,54.30
2023-02-07T10:57:02.261Z,48.18
2023-02-07T10:58:08.624Z,48.18
2023-02-07T10:59:01.514Z,49.31
2023-02-07T10:59:59.498Z,50.11
2023-02-07T11:00:59.504Z,48.50
2023-02-07T11:01:59.639Z,47.53
2023-02-07T11:02:59.519Z,50.27
2023-02-07T11:06:11.164Z,48.50
2023-02-07T11:07:11.219Z,45.76
2023-02-07T11:08:11.149Z,55.75
2023-02-07T11:09:12.295Z,48.66
2023-02-07T11:10:12.279Z,52.37
2023-02-07T11:11:12.265Z,47.37
2023-02-07T11:12:12.320Z,50.11
2023-02-07T11:13:12.329Z,50.92
2023-02-07T11:14:12.254Z,48.18
2023-02-07T11:15:12.246Z,52.53
2023-02-07T11:16:12.248Z,49.79
2023-02-07T11:17:12.267Z,49.63
2023-02-07T11:18:12.213Z,55.27
2023-02-07T11:19:12.226Z,48.34
2023-02-07T11:20:12.200Z,51.72
2023-02-07T11:21:12.198Z,53.01
2023-02-07T11:22:12.219Z,52.05
2023-02-07T11:23:12.211Z,55.59
2023-02-07T11:24:12.176Z,51.40
2023-02-07T11:25:12.158Z,47.70
2023-02-07T11:26:12.169Z,48.02
2023-02-07T11:27:12.152Z,47.70
2023-02-07T11:28:12.200Z,49.95
2023-02-07T11:29:12.135Z,46.41
2023-02-07T11:30:12.132Z,48.50
2023-02-07T11:31:12.166Z,46.57
2023-02-07T11:32:12.115Z,56.72
2023-02-07T11:33:12.132Z,50.27
2023-02-07T11:34:12.125Z,52.53
2023-02-07T11:35:12.092Z,43.67
2023-02-07T11:36:12.095Z,55.27
2023-02-07T11:37:12.079Z,50.27
2023-02-07T11:38:12.092Z,47.86
2023-02-07T11:39:12.126Z,47.05
2023-02-07T11:40:12.063Z,43.34
2023-02-07T11:41:12.048Z,51.24
2023-02-07T11:42:12.034Z,53.50
2023-02-07T11:43:12.059Z,47.86
2023-02-07T11:44:12.028Z,51.88
2023-02-07T11:45:12.019Z,48.82
2023-02-07T11:46:12.013Z,51.72
2023-02-07T11:47:12.008Z,44.63
2023-02-07T11:48:12.015Z,46.08
2023-02-07T11:49:11.997Z,50.92
2023-02-07T11:50:11.977Z,55.11
2023-02-07T11:51:11.967Z,51.56
2023-02-07T11:52:11.976Z,46.89
2023-02-07T11:53:11.981Z,53.33
2023-02-07T11:54:11.934Z,51.08
2023-02-07T11:55:12.935Z,50.76
2023-02-07T11:56:11.930Z,51.56
2023-02-07T11:57:11.922Z,51.40
2023-02-07T11:58:11.933Z,44.15
2023-02-07T11:59:11.910Z,51.40
2023-02-07T12:00:11.943Z,48.34
2023-02-07T12:01:11.896Z,53.98
2023-02-07T12:02:11.940Z,46.41
2023-02-07T12:03:11.906Z,45.76
2023-02-07T12:04:11.881Z,54.30
2023-02-07T12:05:11.930Z,43.83
2023-02-07T12:06:11.855Z,46.25
2023-02-07T12:07:11.847Z,46.73
2023-02-07T12:08:11.872Z,53.66
2023-02-07T12:09:11.836Z,48.34
2023-02-07T12:10:11.818Z,47.70
2023-02-07T12:11:11.816Z,49.79
2023-02-07T12:12:11.807Z,49.79
2023-02-07T12:13:11.838Z,44.63
2023-02-07T12:14:11.792Z,54.62
2023-02-07T12:15:11.786Z,49.79
2023-02-07T12:16:11.807Z,52.85
2023-02-07T12:17:11.785Z,48.82
2023-02-07T12:18:11.807Z,52.37
2023-02-07T12:19:11.760Z,53.50
2023-02-07T12:20:11.747Z,47.21
2023-02-07T12:21:11.734Z,49.47
2023-02-07T12:22:11.736Z,45.76
2023-02-07T12:23:39.202Z,50.76
2023-02-07T12:24:13.776Z,47.37
2023-02-07T12:25:11.711Z,47.70
2023-02-07T12:26:11.717Z,54.62
2023-02-07T12:27:11.704Z,46.25
2023-02-07T12:28:11.857Z,45.28
2023-02-07T12:29:13.767Z,47.70
2023-02-07T12:30:12.680Z,50.92
2023-02-07T12:31:11.773Z,49.79
2023-02-07T12:32:11.814Z,48.66
2023-02-07T12:33:11.663Z,48.98
2023-02-07T12:34:11.678Z,44.63
2023-02-07T12:35:11.643Z,51.56
2023-02-07T12:36:11.632Z,50.92
2023-02-07T12:37:11.625Z,49.47
2023-02-07T12:38:11.618Z,49.31
2023-02-07T12:39:11.643Z,55.11
2023-02-07T12:40:11.600Z,57.36
2023-02-07T12:41:11.589Z,52.37
2023-02-07T12:42:11.585Z,48.98
2023-02-07T12:43:11.580Z,53.01
2023-02-07T12:44:11.593Z,52.21
2023-02-07T12:45:15.721Z,51.24
2023-02-07T12:46:11.921Z,43.67
2023-02-07T12:47:11.634Z,43.18
2023-02-07T12:48:11.780Z,49.47
2023-02-07T12:49:11.814Z,50.92
2023-02-07T12:50:11.583Z,48.02
2023-02-07T12:51:11.985Z,50.92
2023-02-07T12:52:11.520Z,49.95
2023-02-07T12:53:11.562Z,48.34
2023-02-07T12:54:11.543Z,46.73